UAE81 OMDB-LFLL
Flight info
| Callsign | UAE81 |
|---|---|
| Flight time | N/A |
| Altitude | 38000 |
| Route | KUTLI L519 ATUDO M318 GOLGU M550 RIBOT DCT MIGMA DCT SITUK M321 IVONU Z710 GAS G662 HIL T540 ENABI L550 NOVPA J981 DATOK L550 GENIV L324 LAKTO DCT OTHON DCT VAXOS DCT RDS UL609 MES DCT DISOR DCT LONTA UL608 DOLEV DCT ROTAR DCT EVANO DCT RONOP DCT GIGUS Z40 AMVAR |
| Aircraft | A359/H-SDE2E3GHIJ3J4J5LM1ORWXY/LB1D1 |
Departure
| Time | N/A |
|---|---|
| Airport | Dubai International Airport (OMDB) |
Arrival
| Time | 2026-05-05 19:22 |
|---|---|
| Airport | Lyon Saint-Exupéry Airport (LFLL) |
| Time | Latitude | Longitude | Altitude | Speed | Heading |
|---|---|---|---|---|---|
| 2026-05-05 18:37 | 45.33754 | 8.78945 | 39997 ft | 450 kts | 266° |
| 2026-05-05 18:38 | 45.33233 | 8.70118 | 39994 ft | 450 kts | 261° |
| 2026-05-05 18:38 | 45.32478 | 8.61293 | 39993 ft | 450 kts | 260° |
| 2026-05-05 18:39 | 45.31680 | 8.52478 | 40017 ft | 450 kts | 260° |
| 2026-05-05 18:39 | 45.30929 | 8.44219 | 39987 ft | 450 kts | 260° |
| 2026-05-05 18:40 | 45.30129 | 8.35424 | 39965 ft | 450 kts | 260° |
| 2026-05-05 18:40 | 45.29324 | 8.26609 | 39965 ft | 450 kts | 259° |
| 2026-05-05 18:41 | 45.28512 | 8.17794 | 39953 ft | 450 kts | 260° |
| 2026-05-05 18:41 | 45.27695 | 8.08993 | 39971 ft | 449 kts | 259° |
| 2026-05-05 18:42 | 45.26870 | 8.00196 | 39965 ft | 450 kts | 259° |
| 2026-05-05 18:42 | 45.26037 | 7.91391 | 39966 ft | 450 kts | 259° |
| 2026-05-05 18:43 | 45.25199 | 7.82595 | 39966 ft | 450 kts | 259° |
| 2026-05-05 18:43 | 45.24353 | 7.73797 | 39966 ft | 450 kts | 259° |
| 2026-05-05 18:44 | 45.23513 | 7.65126 | 39968 ft | 452 kts | 259° |
| 2026-05-05 18:44 | 45.22650 | 7.56291 | 39969 ft | 452 kts | 259° |
| 2026-05-05 18:45 | 45.21779 | 7.47450 | 39964 ft | 453 kts | 259° |
| 2026-05-05 18:45 | 45.20903 | 7.38607 | 39937 ft | 454 kts | 259° |
| 2026-05-05 18:46 | 45.20464 | 7.34199 | 39426 ft | 451 kts | 259° |
| 2026-05-05 18:46 | 45.20021 | 7.29787 | 38705 ft | 453 kts | 259° |
| 2026-05-05 18:46 | 45.19575 | 7.25369 | 37919 ft | 451 kts | 258° |
| 2026-05-05 18:46 | 45.19172 | 7.20970 | 37208 ft | 450 kts | 262° |
| 2026-05-05 18:47 | 45.19175 | 7.16530 | 36584 ft | 452 kts | 270° |
| 2026-05-05 18:47 | 45.19756 | 7.12126 | 35883 ft | 458 kts | 280° |
| 2026-05-05 18:47 | 45.20781 | 7.07846 | 35132 ft | 458 kts | 283° |
| 2026-05-05 18:47 | 45.21935 | 7.03630 | 34443 ft | 459 kts | 284° |
| 2026-05-05 18:48 | 45.23133 | 6.99503 | 33703 ft | 458 kts | 285° |
| 2026-05-05 18:48 | 45.24367 | 6.95331 | 32774 ft | 460 kts | 285° |
| 2026-05-05 18:48 | 45.25607 | 6.91120 | 31746 ft | 464 kts | 285° |
| 2026-05-05 18:48 | 45.26845 | 6.86875 | 30730 ft | 466 kts | 285° |
| 2026-05-05 18:49 | 45.28074 | 6.82619 | 29735 ft | 466 kts | 285° |
| 2026-05-05 18:49 | 45.29319 | 6.78289 | 28652 ft | 468 kts | 286° |
| 2026-05-05 18:49 | 45.30509 | 6.74091 | 28048 ft | 459 kts | 285° |
| 2026-05-05 18:49 | 45.31467 | 6.69885 | 27270 ft | 437 kts | 278° |
| 2026-05-05 18:50 | 45.32011 | 6.65725 | 26084 ft | 422 kts | 271° |
| 2026-05-05 18:50 | 45.32195 | 6.61598 | 24699 ft | 417 kts | 267° |
| 2026-05-05 18:50 | 45.32266 | 6.57525 | 23923 ft | 407 kts | 267° |
| 2026-05-05 18:50 | 45.32322 | 6.53523 | 23584 ft | 402 kts | 267° |
| 2026-05-05 18:51 | 45.32379 | 6.49572 | 22979 ft | 398 kts | 267° |
| 2026-05-05 18:51 | 45.32435 | 6.45677 | 22322 ft | 387 kts | 267° |
| 2026-05-05 18:51 | 45.32487 | 6.41877 | 21850 ft | 383 kts | 267° |
| 2026-05-05 18:51 | 45.32540 | 6.38174 | 21320 ft | 368 kts | 267° |
| 2026-05-05 18:52 | 45.32589 | 6.34609 | 20790 ft | 354 kts | 267° |
| 2026-05-05 18:52 | 45.32635 | 6.31175 | 20317 ft | 341 kts | 267° |
| 2026-05-05 18:52 | 45.32678 | 6.27860 | 19884 ft | 329 kts | 267° |
| 2026-05-05 18:52 | 45.32718 | 6.24638 | 19478 ft | 324 kts | 266° |
| 2026-05-05 18:53 | 45.32755 | 6.21457 | 19121 ft | 320 kts | 267° |
| 2026-05-05 18:53 | 45.32792 | 6.18312 | 18733 ft | 318 kts | 266° |
| 2026-05-05 18:53 | 45.32831 | 6.15168 | 18313 ft | 317 kts | 267° |
| 2026-05-05 18:53 | 45.33105 | 6.12092 | 18291 ft | 316 kts | 279° |
| 2026-05-05 18:54 | 45.33899 | 6.09150 | 18195 ft | 324 kts | 295° |
| 2026-05-05 18:54 | 45.35242 | 6.06554 | 17838 ft | 328 kts | 306° |
| 2026-05-05 18:54 | 45.36774 | 6.04131 | 17316 ft | 330 kts | 308° |
| 2026-05-05 18:54 | 45.38337 | 6.01744 | 16852 ft | 329 kts | 308° |
| 2026-05-05 18:55 | 45.39896 | 5.99372 | 16406 ft | 327 kts | 308° |
| 2026-05-05 18:55 | 45.41445 | 5.97009 | 15968 ft | 325 kts | 308° |
| 2026-05-05 18:55 | 45.42966 | 5.94686 | 15379 ft | 318 kts | 308° |
| 2026-05-05 18:55 | 45.44472 | 5.92381 | 14863 ft | 318 kts | 308° |
| 2026-05-05 18:56 | 45.45977 | 5.90074 | 14395 ft | 318 kts | 308° |
| 2026-05-05 18:56 | 45.47478 | 5.87773 | 13969 ft | 316 kts | 309° |
| 2026-05-05 18:56 | 45.48970 | 5.85486 | 13571 ft | 314 kts | 309° |
| 2026-05-05 18:56 | 45.50445 | 5.83218 | 13088 ft | 309 kts | 308° |
| 2026-05-05 18:57 | 45.51902 | 5.80978 | 12394 ft | 307 kts | 308° |
| 2026-05-05 18:57 | 45.53356 | 5.78738 | 11858 ft | 308 kts | 308° |
| 2026-05-05 18:57 | 45.54806 | 5.76502 | 11404 ft | 306 kts | 308° |
| 2026-05-05 18:57 | 45.56238 | 5.74297 | 11168 ft | 298 kts | 308° |
| 2026-05-05 18:58 | 45.57645 | 5.72128 | 11018 ft | 298 kts | 308° |
| 2026-05-05 18:58 | 45.59048 | 5.69959 | 10920 ft | 297 kts | 308° |
| 2026-05-05 18:58 | 45.60453 | 5.67788 | 10843 ft | 298 kts | 308° |
| 2026-05-05 18:58 | 45.61854 | 5.65619 | 10667 ft | 297 kts | 308° |
| 2026-05-05 18:59 | 45.63254 | 5.63453 | 10548 ft | 296 kts | 308° |
| 2026-05-05 18:59 | 45.64651 | 5.61293 | 10383 ft | 296 kts | 307° |
| 2026-05-05 18:59 | 45.66043 | 5.59133 | 10245 ft | 295 kts | 307° |
| 2026-05-05 18:59 | 45.67435 | 5.56974 | 9948 ft | 295 kts | 307° |
| 2026-05-05 19:00 | 45.68818 | 5.54826 | 9597 ft | 292 kts | 307° |
| 2026-05-05 19:00 | 45.70192 | 5.52690 | 9273 ft | 291 kts | 307° |
| 2026-05-05 19:00 | 45.71561 | 5.50561 | 8950 ft | 290 kts | 307° |
| 2026-05-05 19:00 | 45.72462 | 5.49160 | 8771 ft | 289 kts | 308° |
| 2026-05-05 19:01 | 45.74267 | 5.46345 | 8356 ft | 285 kts | 309° |
| 2026-05-05 19:01 | 45.75154 | 5.44963 | 8228 ft | 284 kts | 309° |
| 2026-05-05 19:01 | 45.76922 | 5.42207 | 7888 ft | 283 kts | 309° |
| 2026-05-05 19:01 | 45.77818 | 5.40810 | 7693 ft | 282 kts | 309° |
| 2026-05-05 19:02 | 45.79567 | 5.38078 | 7296 ft | 280 kts | 309° |
| 2026-05-05 19:02 | 45.80454 | 5.36693 | 7099 ft | 279 kts | 309° |
| 2026-05-05 19:02 | 45.82182 | 5.33989 | 6713 ft | 277 kts | 309° |
| 2026-05-05 19:02 | 45.83059 | 5.32617 | 6493 ft | 276 kts | 309° |
| 2026-05-05 19:03 | 45.84352 | 5.30592 | 6209 ft | 274 kts | 309° |
| 2026-05-05 19:03 | 45.85632 | 5.28584 | 5926 ft | 272 kts | 309° |
| 2026-05-05 19:03 | 45.86903 | 5.26590 | 5615 ft | 270 kts | 309° |
| 2026-05-05 19:03 | 45.88151 | 5.24633 | 5426 ft | 259 kts | 309° |
| 2026-05-05 19:04 | 45.89341 | 5.22768 | 5275 ft | 248 kts | 309° |
| 2026-05-05 19:04 | 45.90479 | 5.20981 | 5143 ft | 237 kts | 309° |
| 2026-05-05 19:04 | 45.91586 | 5.19238 | 5009 ft | 236 kts | 309° |
| 2026-05-05 19:04 | 45.92654 | 5.17459 | 4750 ft | 234 kts | 302° |
| 2026-05-05 19:05 | 45.93290 | 5.15361 | 4512 ft | 228 kts | 276° |
| 2026-05-05 19:05 | 45.93305 | 5.13139 | 4283 ft | 225 kts | 264° |
| 2026-05-05 19:05 | 45.93131 | 5.10868 | 4021 ft | 226 kts | 260° |
| 2026-05-05 19:05 | 45.92587 | 5.08777 | 3960 ft | 226 kts | 232° |
| 2026-05-05 19:06 | 45.91309 | 5.07538 | 3907 ft | 225 kts | 199° |
| 2026-05-05 19:06 | 45.89797 | 5.07101 | 3804 ft | 223 kts | 182° |
| 2026-05-05 19:06 | 45.88280 | 5.07349 | 3698 ft | 216 kts | 172° |
| 2026-05-05 19:06 | 45.86809 | 5.07614 | 3442 ft | 212 kts | 178° |
| 2026-05-05 19:07 | 45.85344 | 5.07728 | 3164 ft | 209 kts | 178° |
| 2026-05-05 19:07 | 45.83916 | 5.07914 | 2888 ft | 201 kts | 176° |
| 2026-05-05 19:07 | 45.82560 | 5.08086 | 2608 ft | 191 kts | 177° |
| 2026-05-05 19:07 | 45.81290 | 5.08236 | 2374 ft | 176 kts | 176° |
| 2026-05-05 19:08 | 45.80105 | 5.08382 | 2141 ft | 166 kts | 176° |
| 2026-05-05 19:08 | 45.78989 | 5.08518 | 1920 ft | 155 kts | 176° |
| 2026-05-05 19:08 | 45.77986 | 5.08646 | 1854 ft | 137 kts | 176° |
| 2026-05-05 19:08 | 45.77014 | 5.08765 | 1530 ft | 138 kts | 176° |
| 2026-05-05 19:09 | 45.76074 | 5.08872 | 1311 ft | 134 kts | 175° |
| 2026-05-05 19:09 | 45.75143 | 5.08990 | 1135 ft | 135 kts | 175° |
| 2026-05-05 19:09 | 45.74211 | 5.09101 | 997 ft | 132 kts | 175° |
| 2026-05-05 19:09 | 45.73281 | 5.09199 | 1255 ft | 142 kts | 176° |
| 2026-05-05 19:10 | 45.72242 | 5.09312 | 1526 ft | 156 kts | 176° |
| 2026-05-05 19:10 | 45.71162 | 5.09439 | 2045 ft | 153 kts | 176° |
| 2026-05-05 19:10 | 45.70052 | 5.09570 | 2347 ft | 171 kts | 176° |
| 2026-05-05 19:10 | 45.68790 | 5.09755 | 2545 ft | 195 kts | 177° |
| 2026-05-05 19:11 | 45.67439 | 5.10428 | 2812 ft | 221 kts | 149° |
| 2026-05-05 19:11 | 45.66393 | 5.12222 | 3079 ft | 253 kts | 118° |
| 2026-05-05 19:11 | 45.66070 | 5.14776 | 3575 ft | 272 kts | 88° |
| 2026-05-05 19:11 | 45.66600 | 5.17385 | 3935 ft | 278 kts | 62° |
| 2026-05-05 19:12 | 45.67878 | 5.19437 | 4020 ft | 278 kts | 34° |
| 2026-05-05 19:12 | 45.69629 | 5.20577 | 4016 ft | 277 kts | 15° |
| 2026-05-05 19:12 | 45.71490 | 5.21311 | 4021 ft | 278 kts | 13° |
| 2026-05-05 19:12 | 45.73375 | 5.21923 | 4019 ft | 277 kts | 5° |
| 2026-05-05 19:13 | 45.75293 | 5.21965 | 4021 ft | 275 kts | 354° |
| 2026-05-05 19:13 | 45.77197 | 5.21757 | 4016 ft | 274 kts | 353° |
| 2026-05-05 19:13 | 45.79099 | 5.21519 | 4017 ft | 275 kts | 353° |
| 2026-05-05 19:13 | 45.81002 | 5.21280 | 4022 ft | 275 kts | 353° |
| 2026-05-05 19:14 | 45.82878 | 5.21051 | 4018 ft | 263 kts | 353° |
| 2026-05-05 19:14 | 45.84638 | 5.20839 | 4021 ft | 246 kts | 353° |
| 2026-05-05 19:14 | 45.86325 | 5.20638 | 4033 ft | 242 kts | 353° |
| 2026-05-05 19:14 | 45.88004 | 5.20422 | 4024 ft | 243 kts | 353° |
| 2026-05-05 19:15 | 45.89687 | 5.20203 | 4015 ft | 243 kts | 352° |
| 2026-05-05 19:15 | 45.91368 | 5.19988 | 4015 ft | 242 kts | 352° |
| 2026-05-05 19:15 | 45.93044 | 5.19759 | 4015 ft | 242 kts | 351° |
| 2026-05-05 19:15 | 45.94599 | 5.18943 | 4015 ft | 237 kts | 321° |
| 2026-05-05 19:16 | 45.95616 | 5.17164 | 4024 ft | 229 kts | 290° |
| 2026-05-05 19:16 | 45.95976 | 5.14965 | 4014 ft | 225 kts | 272° |
| 2026-05-05 19:16 | 45.95667 | 5.12815 | 3953 ft | 219 kts | 241° |
| 2026-05-05 19:16 | 45.94672 | 5.11257 | 3831 ft | 208 kts | 217° |
| 2026-05-05 19:17 | 45.93502 | 5.10122 | 3701 ft | 198 kts | 213° |
| 2026-05-05 19:17 | 45.92342 | 5.09077 | 3430 ft | 196 kts | 212° |
| 2026-05-05 19:17 | 45.91184 | 5.08036 | 3142 ft | 196 kts | 213° |
| 2026-05-05 19:17 | 45.89946 | 5.07257 | 3024 ft | 196 kts | 193° |
| 2026-05-05 19:18 | 45.88584 | 5.07247 | 3024 ft | 197 kts | 172° |
| 2026-05-05 19:18 | 45.87225 | 5.07543 | 3022 ft | 198 kts | 175° |
| 2026-05-05 19:18 | 45.85855 | 5.07693 | 3020 ft | 198 kts | 178° |
| 2026-05-05 19:18 | 45.84502 | 5.07840 | 2982 ft | 198 kts | 177° |
| 2026-05-05 19:19 | 45.83136 | 5.08009 | 2755 ft | 196 kts | 176° |
| 2026-05-05 19:19 | 45.81815 | 5.08173 | 2501 ft | 184 kts | 176° |
| 2026-05-05 19:19 | 45.80585 | 5.08323 | 2239 ft | 172 kts | 176° |
| 2026-05-05 19:19 | 45.79428 | 5.08464 | 2009 ft | 161 kts | 176° |
| 2026-05-05 19:20 | 45.78354 | 5.08596 | 1768 ft | 150 kts | 176° |
| 2026-05-05 19:20 | 45.77352 | 5.08719 | 1572 ft | 140 kts | 175° |
| 2026-05-05 19:20 | 45.76412 | 5.08839 | 1361 ft | 132 kts | 175° |
| 2026-05-05 19:20 | 45.75495 | 5.08954 | 1192 ft | 134 kts | 175° |
| 2026-05-05 19:21 | 45.74569 | 5.09064 | 1034 ft | 134 kts | 175° |
| 2026-05-05 19:21 | 45.73636 | 5.09172 | 874 ft | 135 kts | 175° |
| 2026-05-05 19:21 | 45.72722 | 5.09283 | 811 ft | 120 kts | 175° |
| 2026-05-05 19:21 | 45.72010 | 5.09369 | 826 ft | 86 kts | 175° |
| 2026-05-05 19:22 | 45.71587 | 5.09421 | 825 ft | 40 kts | 175° |
| 2026-05-05 19:22 | 45.71355 | 5.09450 | 834 ft | 29 kts | 175° |
| 2026-05-05 19:22 | 45.71206 | 5.09468 | 829 ft | 14 kts | 176° |
| 2026-05-05 19:22 | 45.71126 | 5.09434 | 825 ft | 9 kts | 227° |
| 2026-05-05 19:23 | 45.71107 | 5.09341 | 827 ft | 12 kts | 263° |
| 2026-05-05 19:23 | 45.71096 | 5.09203 | 829 ft | 13 kts | 264° |
| 2026-05-05 19:23 | 45.71086 | 5.09062 | 827 ft | 12 kts | 264° |
| 2026-05-05 19:23 | 45.71078 | 5.08947 | 821 ft | 11 kts | 265° |
| 2026-05-05 19:24 | 45.71086 | 5.08821 | 824 ft | 11 kts | 283° |
| 2026-05-05 19:24 | 45.71104 | 5.08712 | 825 ft | 11 kts | 284° |
| 2026-05-05 19:24 | 45.71134 | 5.08612 | 823 ft | 11 kts | 303° |
| 2026-05-05 19:24 | 45.71195 | 5.08555 | 817 ft | 11 kts | 349° |
| 2026-05-05 19:25 | 45.71268 | 5.08545 | 820 ft | 10 kts | 355° |
| 2026-05-05 19:25 | 45.71338 | 5.08536 | 818 ft | 10 kts | 355° |
| 2026-05-05 19:25 | 45.71410 | 5.08527 | 815 ft | 11 kts | 355° |
| 2026-05-05 19:25 | 45.71498 | 5.08516 | 810 ft | 14 kts | 355° |
| 2026-05-05 19:26 | 45.71586 | 5.08506 | 809 ft | 11 kts | 355° |
| 2026-05-05 19:26 | 45.71653 | 5.08493 | 809 ft | 9 kts | 341° |
| 2026-05-05 19:26 | 45.71680 | 5.08429 | 807 ft | 8 kts | 272° |
| 2026-05-05 19:26 | 45.71678 | 5.08344 | 806 ft | 8 kts | 266° |
| 2026-05-05 19:27 | 45.71676 | 5.08278 | 807 ft | 5 kts | 271° |
| 2026-05-05 19:27 | 45.71680 | 5.08238 | 807 ft | 4 kts | 281° |
| 2026-05-05 19:27 | 45.71688 | 5.08181 | 806 ft | 8 kts | 283° |
| 2026-05-05 19:27 | 45.71704 | 5.08096 | 804 ft | 9 kts | 287° |
| 2026-05-05 19:28 | 45.71727 | 5.08007 | 803 ft | 9 kts | 291° |
| 2026-05-05 19:28 | 45.71740 | 5.07957 | 803 ft | 0 kts | 291° |